1973 Tropical Cyclone UNA (1973349S14157)


IBTrACS version v04r00. Visit IBTrACS website for data access.
Please direct all questions to the IBTrACS Q and A forum

Storm track - Intensity - Wind Radii - Intensity Data - Source Data - All data

Summary Information

Storm ID 1973349S14157
Start Dec 14 23Z
Landfall Dec 18 18Z
Max Intensity 55 kt (Dec 18 14Z), 985 mb (Dec 18 14Z)
End Dec 22 12Z
ATCF IDs ,SH101974
Track status Best track data.

Storm track plot

Map of storm track

Intensity plots

Map of storm track

Radial wind information

No radial wind information for this storm


Position and Intensity Table

BASIN ISO_TIME_________ NATURE LAT LON WMO WIND WMO PRES BOM WIND BOM PRES WELLINGTON WIND WELLINGTON PRES NEUMANN WIND NEUMANN PRES
degrees north degrees east kts mb kts mb kts mb kts mb
SP 1973-12-14 23:00:00 NR -13.90 156.80 25 1000 25 1000
SP 1973-12-15 00:00:00 TS -13.92 156.73 25 1000 30 1000
SP 02:00:00 TS -13.99 156.53 25 1000 25 1000 31 999
SP 03:00:00 TS -14.02 156.43 25 999 32 999
SP 05:00:00 TS -14.08 156.23 25 998 25 998 34 998
SP 06:00:00 TS -14.11 156.13 25 998 35 998
SP 08:00:00 TS -14.16 155.93 25 998 25 998 35 998
SP 09:00:00 TS -14.17 155.83 25 998 35 998
SP 11:00:00 TS -14.19 155.63 25 998 25 998 35 998
SP 12:00:00 TS -14.20 155.53 25 998 35 998
SP 14:00:00 TS -14.23 155.33 25 998 25 998 35 998
SP 15:00:00 TS -14.25 155.23 25 998 35 998
SP 17:00:00 TS -14.29 155.03 25 998 25 998 35 998
SP 18:00:00 TS -14.30 154.93 25 998 35 998
SP 20:00:00 TS -14.30 154.75 25 998 25 998 35 997
SP 21:00:00 TS -14.30 154.67 25 997 35 997
SP 23:00:00 TS -14.30 154.52 25 997 25 997 35 997
SP 1973-12-16 00:00:00 TS -14.31 154.45 25 996 35 997
SP 02:00:00 TS -14.35 154.29 25 996 25 996 35 996
SP 03:00:00 TS -14.22 154.24 25 996 35 996
SP 05:00:00 TS -14.13 154.12 25 996 25 996 35 996
SP 06:00:00 TS -14.09 154.08 25 996 35 996
SP 08:00:00 TS -14.13 153.96 25 996 25 996 35 996
SP 09:00:00 TS -14.16 153.89 25 996 35 996
SP 11:00:00 TS -14.23 153.72 25 996 25 996 35 996
SP 12:00:00 TS -14.25 153.66 25 995 30 997 35 996
SP 14:00:00 TS -14.25 153.47 25 995 25 995 31 995 35 996
SP 15:00:00 TS -14.22 153.38 25 995 32 995 35 997
SP 17:00:00 TS -14.15 153.14 25 998 25 998 34 994 35 997
SP 18:00:00 TS -14.13 153.00 25 997 35 993 35 998
SP 20:00:00 TS -14.08 152.74 25 995 25 995 36 992 36 996
SP 21:00:00 TS -14.06 152.62 26 995 37 991 37 996
SP 23:00:00 TS -14.05 152.35 30 995 30 995 39 990 39 995
SP 1973-12-17 00:00:00 TS -14.06 152.22 30 995 40 990 40 995
SP 02:00:00 TS -14.11 151.93 30 995 30 995 40 990 40 994
SP 03:00:00 TS -14.14 151.78 31 994 40 990 40 994
SP 05:00:00 TS -14.25 151.46 35 993 35 993 40 990 40 993
SP 06:00:00 TS -14.32 151.30 35 993 40 990 40 993
SP 08:00:00 TS -14.48 150.93 35 993 35 993 40 990 40 993
SP 09:00:00 TS -14.57 150.72 35 993 40 990 40 993
SP 11:00:00 TS -14.78 150.30 35 993 35 993 40 990 40 993
SP 12:00:00 TS -14.90 150.11 35 993 40 990 40 993
SP 14:00:00 TS -15.17 149.75 35 993 35 993 40 990 40 993
SP 15:00:00 TS -15.30 149.58 36 993 40 990 40 993
SP 17:00:00 TS -15.61 149.25 40 993 40 993 40 990 40 993
SP 18:00:00 TS -15.79 149.10 40 993 40 990 40 993
SP 20:00:00 TS -16.19 148.80 40 993 40 993 40 990 40 993
SP 21:00:00 TS -16.39 148.66 43 993 40 990 40 993
SP 23:00:00 TS -16.79 148.38 50 993 50 993 40 990 40 993
SP 1973-12-18 00:00:00 TS -16.97 148.25 50 993 40 990 40 993
SP 02:00:00 TS -17.27 148.00 50 993 50 993 40 990 41 992
SP 03:00:00 TS -17.37 147.89 50 992 40 990 42 992
SP 05:00:00 TS -17.54 147.68 50 992 50 992 40 990 44 992
SP 06:00:00 TS -17.63 147.58 50 991 40 990 45 992
SP 08:00:00 TS -17.75 147.40 50 991 50 991 40 990 46 990
SP 09:00:00 TS -17.80 147.32 50 990 40 990 47 990
SP 11:00:00 TS -17.97 147.20 50 989 50 989 40 990 49 989
SP 12:00:00 TS -18.10 147.15 51 987 40 990 50 989
SP 14:00:00 TS -18.55 147.09 55 985 55 985 38 991 50 988
SP 15:00:00 TS -18.81 147.08 48 985 37 991 50 988
SP 17:00:00 TS -19.40 147.09 35 988 35 988 35 992 50 988
SP 18:00:00 TS -19.71 147.09 33 989 35 993 50 988
SP 20:00:00 TS -20.33 147.11 30 994 30 994 33 994 44 991
SP 21:00:00 TS -20.63 147.12 30 995 32 995 42 993
SP 23:00:00 TS -21.20 147.16 30 998 30 998 30 996 37 996
SP 1973-12-19 00:00:00 TS -21.45 147.20 28 998 30 997 35 998
SP 02:00:00 TS -21.79 147.27 25 998 25 998 35 998
SP 03:00:00 TS -21.89 147.31 25 998 35 998
SP 05:00:00 TS -22.03 147.39 25 998 25 998 35 998
SP 06:00:00 TS -22.08 147.44 25 998 35 998
SP 08:00:00 TS -22.21 147.53 25 998 25 998 35 998
SP 09:00:00 TS -22.26 147.58 25 998 35 998
SP 11:00:00 TS -22.37 147.70 25 998 25 998 35 998
SP 12:00:00 TS -22.43 147.75 25 998 35 998
SP 14:00:00 TS -22.56 147.87 25 998 25 998 35 998
SP 15:00:00 TS -22.63 147.93 25 998 35 998
SP 17:00:00 TS -22.78 148.07 25 998 25 998 35 998
SP 18:00:00 TS -22.87 148.16 23 998 35 998
SP 20:00:00 TS -23.04 148.33 20 1000 20 1000 33 998
SP 21:00:00 TS -23.12 148.47 20 1000 32 999
SP 23:00:00 TS -23.30 148.77 20 1000 20 1000 30 999
SP 1973-12-20 00:00:00 TS -23.35 149.00 20 1000 30 1000
SP 02:00:00 TS -23.50 149.50 20 1002 20 1002
SP 03:00:00 TS -23.60 149.78
SP 06:00:00 TS -24.10 150.54
SP 09:00:00 TS -24.69 151.42
SP 12:00:00 TS -25.40 152.30
SP 15:00:00 TS -26.31 153.04
SP 18:00:00 TS -27.28 153.71
SP 21:00:00 TS -28.18 154.39
SP 1973-12-21 00:00:00 TS -28.90 155.00
SP 03:00:00 TS -29.30 155.49
SP 06:00:00 TS -29.54 155.92
SP 09:00:00 TS -29.78 156.35
SP 12:00:00 TS -30.00 156.80
SP 15:00:00 TS -30.25 157.27
SP 18:00:00 TS -30.50 157.78
SP 21:00:00 TS -30.75 158.33
SP 1973-12-22 00:00:00 TS -31.00 159.00
SP 03:00:00 TS -31.25 159.79
SP 06:00:00 TS -31.50 160.74
SP 09:00:00 TS -31.75 161.83
SP 12:00:00 TS -32.00 163.00

Source Information

Agency Information
USA bsh101974.txt
TOKYO
CMA
HKO
NEWDELHI
REUNION
BOM IDCKMSTM0S.csv:Line=8409:UNA
NADI
WELLINGTON TC_BT_1967_2006.csv:Line=596:UNA
DS824 s_hem.dat:1238:10P
TD9636 cons_worldwide_trop_cyclone_18710101-19891231-006:Line=9424
TD9635
NEUMANN tracks.sh:Storm=387:UNA:BSH1074:BM431
MLC

All available IBTrACS Data

SEASON BASIN SUBBASIN ISO_TIME_________ NATURE LAT LON WMO WIND WMO PRES WMO AGENCY DIST2LAND LANDFALL IFLAG USA AGENCY USA ATCF_ID USA LAT USA LON USA SSHS BOM LAT BOM LON BOM TYPE BOM WIND BOM PRES BOM CI WELLINGTON LAT WELLINGTON LON WELLINGTON WIND WELLINGTON PRES DS824 LAT DS824 LON DS824 STAGE TD9636 LAT TD9636 LON TD9636 STAGE NEUMANN LAT NEUMANN LON NEUMANN CLASS NEUMANN WIND NEUMANN PRES BOM GUST BOM GUST_PER STORM SPEED STORM DIR
Year degrees north degrees east kts mb km km degrees north degrees east 1 degrees north degrees east kts mb 1 degrees north degrees east kts mb degrees north degrees east degrees north degrees east degrees north degrees east kts mb kts second kts degrees
1974 SP EA 1973-12-14 23:00:00 NR -13.90 156.80 25 1000 bom 563 563 ______O_______ -1 -13.90 156.80 20 25 1000 1.50 45 45 4 256
1974 SP EA 1973-12-15 00:00:00 TS -13.92 156.73 569 569 ______P_____O_ -1 -13.93 156.70 20 25 1000 -13.90 156.80 TC 30 1000 6 252
1974 SP EA 02:00:00 TS -13.99 156.53 25 1000 bom 591 591 ______O_____P_ -1 -14.00 156.50 20 25 1000 1.50 -13.97 156.60 TC 31 999 45 45 6 250
1974 SP EA 03:00:00 TS -14.02 156.43 598 598 ______P_____P_ -1 -14.03 156.40 20 25 999 -14.01 156.50 TC 32 999 6 251
1974 SP EA 05:00:00 TS -14.08 156.23 25 998 bom 620 620 ______O_____P_ -1 -14.10 156.20 20 25 998 1.50 -14.07 156.30 TC 34 998 45 45 6 252
1974 SP EA 06:00:00 TS -14.11 156.13 627 627 ______P_____O_ -1 -14.14 156.10 20 25 998 -14.10 156.20 TC 35 998 6 255
1974 SP EA 08:00:00 TS -14.16 155.93 25 998 bom 650 650 ______O_____P_ -1 -14.20 155.90 20 25 998 1.50 -14.14 156.00 TC 35 998 45 45 6 258
1974 SP EA 09:00:00 TS -14.17 155.83 657 657 ______P_____P_ -1 -14.21 155.80 20 25 998 -14.16 155.90 TC 35 998 6 264
1974 SP EA 11:00:00 TS -14.19 155.63 25 998 bom 667 667 ______O_____P_ -1 -14.20 155.60 20 25 998 1.50 -14.19 155.70 TC 35 998 45 45 6 265
1974 SP EA 12:00:00 TS -14.20 155.53 659 642 ______P_____O_ -1 -14.19 155.50 20 25 998 -14.20 155.60 TC 35 998 6 263
1974 SP EA 14:00:00 TS -14.23 155.33 25 998 bom 642 633 ______O_____P_ -1 -14.20 155.30 20 25 998 1.50 -14.24 155.39 TC 35 998 45 45 6 260
1974 SP EA 15:00:00 TS -14.25 155.23 633 624 ______P_____P_ -1 -14.23 155.20 20 25 998 -14.26 155.29 TC 35 998 6 257
1974 SP EA 17:00:00 TS -14.29 155.03 25 998 bom 624 616 ______O_____P_ -1 -14.30 155.00 20 25 998 1.50 -14.29 155.09 TC 35 998 45 45 6 259
1974 SP EA 18:00:00 TS -14.30 154.93 616 608 ______P_____O_ -1 -14.31 154.89 20 25 998 -14.30 155.00 TC 35 998 5 268
1974 SP EA 20:00:00 TS -14.30 154.75 25 998 bom 608 600 ______O_____P_ -1 -14.30 154.70 20 25 998 1.50 -14.30 154.83 TC 35 997 45 45 5 271
1974 SP EA 21:00:00 TS -14.30 154.67 600 584 ______P_____P_ -1 -14.29 154.63 20 25 997 -14.30 154.74 TC 35 997 4 271
1974 SP EA 23:00:00 TS -14.30 154.52 25 997 bom 584 584 ______O_____P_ -1 -14.30 154.50 20 25 997 2.00 -14.30 154.58 TC 35 997 45 45 4 267
1974 SP EA 1973-12-16 00:00:00 TS -14.31 154.45 577 577 ______P_____O_ -1 -14.33 154.44 20 25 996 -14.30 154.50 TC 35 997 5 257
1974 SP EA 02:00:00 TS -14.35 154.29 25 996 bom 577 554 ______O_____P_ -1 -14.40 154.30 20 25 996 2.00 -14.33 154.33 TC 35 996 45 45 4 294
1974 SP EA 03:00:00 TS -14.22 154.24 554 538 ______P_____P_ -1 -14.40 154.21 20 25 996 -14.34 154.25 TC 35 996 5 323
1974 SP EA 05:00:00 TS -14.13 154.12 25 996 bom 538 538 ______O_____P_ -1 -14.40 154.00 20 25 996 2.00 -14.38 154.08 TC 35 996 45 45 4 310
1974 SP EA 06:00:00 TS -14.09 154.08 538 531 O_____P__O__O_ jtwc_sh SH101974 -13.60 154.30 -1 -14.43 153.89 20 25 996 -13.60 154.30 TC -14.40 154.00 TC 35 996 3 272
1974 SP EA 08:00:00 TS -14.13 153.96 25 996 bom 531 523 P_____O__P__P_ SH101974 -13.76 154.16 -1 -14.50 153.70 20 25 996 2.00 -13.76 154.16 TC -14.44 153.83 TC 35 996 45 45 4 250
1974 SP EA 09:00:00 TS -14.16 153.89 532 518 P_____P__P__P_ SH101974 -13.84 154.09 -1 -14.51 153.63 20 25 996 -13.84 154.09 TC -14.46 153.75 TC 35 996 5 247
1974 SP EA 11:00:00 TS -14.23 153.72 25 996 bom 518 518 P_____O__P__P_ SH101974 -13.96 153.91 -1 -14.50 153.50 20 25 996 2.00 -13.96 153.91 TC -14.49 153.58 TC 35 996 45 45 5 247
1974 SP EA 12:00:00 TS -14.25 153.66 527 505 O_____P_OOO_O_ jtwc_sh SH101974 -14.00 153.80 -1 -14.50 153.44 20 25 995 -14.30 154.50 30 997 -14.00 153.80 TC -14.00 153.80 2 -14.50 153.50 TC 35 996 5 265
1974 SP EA 14:00:00 TS -14.25 153.47 25 995 bom 505 498 P_____O_PPP_P_ SH101974 -14.04 153.54 -1 -14.50 153.30 20 25 995 2.00 -13.99 154.15 31 995 -14.04 153.54 TC -13.95 153.50 2 -14.51 153.33 TC 35 996 45 45 6 277
1974 SP EA 15:00:00 TS -14.22 153.38 498 486 P_____P_PPP_P_ SH101974 -14.04 153.39 -1 -14.50 153.21 20 25 995 -13.84 153.98 32 995 -14.04 153.39 TC -13.92 153.34 2 -14.51 153.25 TC 35 997 7 286
1974 SP EA 17:00:00 TS -14.15 153.14 25 998 bom 480 464 P_____O_PPP_P_ SH101974 -14.02 153.07 -1 -14.50 153.00 20 25 998 2.00 -13.58 153.64 34 994 -14.02 153.07 TC -13.88 153.04 2 -14.50 153.08 TC 35 997 45 45 7 284
1974 SP EA 18:00:00 TS -14.13 153.00 464 453 O_____P_POP_O_ jtwc_sh SH101974 -14.00 152.90 -1 -14.50 152.89 20 25 997 -13.46 153.47 35 993 -14.00 152.90 TC -13.87 152.88 2 -14.50 153.00 TC 35 998 8 281
1974 SP EA 20:00:00 TS -14.08 152.74 25 995 bom 448 443 P_____O_PPP_P_ SH101974 -13.95 152.58 -1 -14.50 152.70 20 25 995 2.00 -13.28 153.14 36 992 -13.95 152.58 TC -13.85 152.56 2 -14.50 152.84 TC 36 996 45 45 8 280
1974 SP EA 21:00:00 TS -14.06 152.62 443 423 P_____P_PPP_P_ SH101974 -13.92 152.41 -1 -14.50 152.63 20 26 995 -13.22 152.98 37 991 -13.92 152.41 TC -13.85 152.40 2 -14.50 152.76 TC 37 996 8 275
1974 SP EA 23:00:00 TS -14.05 152.35 30 995 bom 423 418 P_____O_PPP_P_ SH101974 -13.89 152.07 -1 -14.50 152.50 20 30 995 2.00 -13.18 152.66 39 990 -13.89 152.07 TC -13.88 152.07 2 -14.50 152.59 TC 39 995 45 45 8 271
1974 SP EA 1973-12-17 00:00:00 TS -14.06 152.22 424 416 O_____P_OOO_O_ jtwc_sh SH101974 -13.90 151.90 -1 -14.50 152.41 20 30 995 -13.20 152.50 40 990 -13.90 151.90 TC -13.90 151.90 2 -14.50 152.50 TC 40 995 8 262
1974 SP EA 02:00:00 TS -14.11 151.93 30 995 bom 413 409 P_____O_PPP_P_ SH101974 -13.98 151.54 -1 -14.50 152.20 20 30 995 2.50 -13.33 152.19 40 990 -13.98 151.54 TC -13.98 151.55 2 -14.48 152.32 TC 40 994 45 45 9 258
1974 SP EA 03:00:00 TS -14.14 151.78 409 409 P_____P_PPP_P_ SH101974 -14.05 151.35 -1 -14.49 152.08 20 31 994 -13.44 152.04 40 990 -14.05 151.35 TC -14.03 151.37 2 -14.48 152.22 TC 40 994 10 252
1974 SP EA 05:00:00 TS -14.25 151.46 35 993 bom 420 414 P_____O_PPP_P_ SH101974 -14.21 150.98 -1 -14.50 151.80 30 35 993 2.50 -13.72 151.73 40 990 -14.21 150.98 TC -14.16 151.01 2 -14.48 151.96 TC 40 993 49 49 10 249
1974 SP EA 06:00:00 TS -14.32 151.30 414 412 O_____P_POP_O_ jtwc_sh SH101974 -14.30 150.80 -1 -14.52 151.66 30 35 993 -13.88 151.58 40 990 -14.30 150.80 TC -14.24 150.83 2 -14.50 151.80 TC 40 993 11 247
1974 SP EA 08:00:00 TS -14.48 150.93 35 993 bom 428 427 P_____O_PPP_P_ SH101974 -14.46 150.45 -1 -14.60 151.30 30 35 993 3.00 -14.24 151.27 40 990 -14.46 150.45 TC -14.43 150.47 2 -14.55 151.37 TC 40 993 49 49 12 246
1974 SP EA 09:00:00 TS -14.57 150.72 437 436 P_____P_PPP_P_ SH101974 -14.55 150.28 -1 -14.65 151.02 30 35 993 -14.43 151.11 40 990 -14.55 150.28 TC -14.53 150.30 2 -14.60 151.13 TC 40 993 14 243
1974 SP EA 11:00:00 TS -14.78 150.30 35 993 bom 459 459 P_____O_PPP_P_ SH101974 -14.77 149.96 -1 -14.80 150.40 30 35 993 3.00 -14.81 150.77 40 990 -14.77 149.96 TC -14.77 149.96 2 -14.72 150.63 TC 40 993 49 49 14 240
1974 SP EA 12:00:00 TS -14.90 150.11 470 467 O_____P_OOO_O_ jtwc_sh SH101974 -14.90 149.80 -1 -14.92 150.17 30 35 993 -15.00 150.60 40 990 -14.90 149.80 TC -14.90 149.80 2 -14.80 150.40 TC 40 993 13 234
1974 SP EA 14:00:00 TS -15.17 149.75 35 993 bom 462 438 P_____O_PPP_P_ SH101974 -15.20 149.48 -1 -15.20 149.80 30 35 993 3.00 -15.28 150.18 40 990 -15.20 149.48 TC -15.23 149.50 2 -14.96 150.00 TC 40 993 49 49 13 232
1974 SP EA 15:00:00 TS -15.30 149.58 438 395 P_____P_PPP_P_ SH101974 -15.37 149.33 -1 -15.29 149.62 30 36 993 -15.42 149.97 40 990 -15.37 149.33 TC -15.40 149.35 2 -15.07 149.81 TC 40 993 13 227
1974 SP EA 17:00:00 TS -15.61 149.25 40 993 bom 395 366 P_____O_PPP_P_ SH101974 -15.72 149.04 -1 -15.50 149.30 30 40 993 3.00 -15.70 149.53 40 990 -15.72 149.04 TC -15.78 149.07 2 -15.33 149.46 TC 40 993 55 55 13 224
1974 SP EA 18:00:00 TS -15.79 149.10 366 317 O_____P_POP_O_ jtwc_sh SH101974 -15.90 148.90 -1 -15.70 149.16 30 40 993 -15.84 149.31 40 990 -15.90 148.90 TC -15.97 148.93 2 -15.50 149.30 TC 40 993 15 217
1974 SP EA 20:00:00 TS -16.19 148.80 40 993 bom 317 298 P_____O_PPP_P_ SH101974 -16.28 148.65 -1 -16.20 148.90 30 40 993 3.00 -16.14 148.89 40 990 -16.28 148.65 TC -16.33 148.68 2 -15.92 148.97 TC 40 993 55 55 15 215
1974 SP EA 21:00:00 TS -16.39 148.66 298 253 P_____P_PPP_P_ SH101974 -16.47 148.54 -1 -16.42 148.74 30 43 993 -16.29 148.70 40 990 -16.47 148.54 TC -16.50 148.55 2 -16.16 148.82 TC 40 993 15 214
1974 SP EA 23:00:00 TS -16.79 148.38 50 993 bom 253 240 P_____O_PPP_P_ SH101974 -16.78 148.31 -1 -16.90 148.40 30 50 993 3.00 -16.62 148.35 40 990 -16.78 148.31 TC -16.78 148.31 2 -16.66 148.53 TC 40 993 69 69 14 214
1974 SP EA 1973-12-18 00:00:00 TS -16.97 148.25 237 202 O_____P_OOO_O_ jtwc_sh SH101974 -16.90 148.20 -1 -17.22 148.25 30 50 993 -16.80 148.20 40 990 -16.90 148.20 TC -16.90 148.20 2 -16.90 148.40 TC 40 993 12 217
1974 SP EA 02:00:00 TS -17.27 148.00 50 993 bom 202 191 P_____O_PPP_P_ SH101974 -17.01 147.96 -1 -17.80 148.00 30 50 993 3.50 -17.21 147.98 40 990 -17.01 147.96 TC -16.90 147.94 2 -17.35 148.14 TC 41 992 69 69 11 221
1974 SP EA 03:00:00 TS -17.37 147.89 191 169 P_____P_PPP_P_ SH101974 -17.02 147.83 -1 -17.94 147.89 30 50 992 -17.43 147.89 40 990 -17.02 147.83 TC -16.87 147.81 2 -17.56 148.02 TC 42 992 8 228
1974 SP EA 05:00:00 TS -17.54 147.68 50 992 bom 169 159 P_____O_PPP_P_ SH101974 -17.01 147.61 -1 -18.10 147.70 30 50 992 3.50 -17.88 147.75 40 990 -17.01 147.61 TC -16.78 147.57 2 -17.94 147.80 TC 44 992 69 69 8 229
1974 SP EA 06:00:00 TS -17.63 147.58 159 137 O_____P_POP_O_ jtwc_sh SH101974 -17.00 147.50 -1 -18.24 147.59 30 50 991 -18.11 147.70 40 990 -17.00 147.50 TC -16.73 147.46 2 -18.10 147.70 TC 45 992 7 232
1974 SP EA 08:00:00 TS -17.75 147.40 50 991 bom 137 127 P_____O_PPP_P_ SH101974 -16.87 147.30 -1 -18.50 147.40 30 50 991 3.50 -18.57 147.62 40 990 -16.87 147.30 TC -16.69 147.27 2 -18.33 147.49 TC 46 990 69 69 6 234
1974 SP EA 09:00:00 TS -17.80 147.32 127 116 P_____P_PPP_P_ SH101974 -16.82 147.20 -1 -18.57 147.32 30 50 990 -18.79 147.58 40 990 -16.82 147.20 TC -16.71 147.18 2 -18.42 147.40 TC 47 990 6 222
1974 SP EA 11:00:00 TS -17.97 147.20 50 989 bom 116 110 P_____O_PPP_P_ SH101974 -16.86 147.06 -1 -18.70 147.20 30 50 989 3.50 -19.21 147.53 40 990 -16.86 147.06 TC -16.85 147.05 2 -18.60 147.25 TC 49 989 69 69 7 208
1974 SP EA 12:00:00 TS -18.10 147.15 101 84 O_____P_OOO_O_ jtwc_sh SH101974 -17.00 147.00 -1 -18.81 147.15 30 51 987 -19.40 147.50 40 990 -17.00 147.00 TC -17.00 147.00 2 -18.70 147.20 TC 50 989 12 189
1974 SP EA 14:00:00 TS -18.55 147.09 55 985 bom 84 54 P_____O_PPP_P_ SH101974 -17.64 146.91 -1 -19.10 147.10 30 55 985 3.50 -19.75 147.44 38 991 -17.64 146.91 TC -17.66 146.93 2 -18.95 147.16 TC 50 988 75 75 14 185
1974 SP EA 15:00:00 TS -18.81 147.08 54 10 P_____P_PPP_P_ SH101974 -18.07 146.89 -1 -19.25 147.12 30 48 985 -19.91 147.41 37 991 -18.07 146.89 TC -18.06 146.92 2 -19.10 147.16 TC 50 988 17 0
1974 SP EA 17:00:00 TS -19.40 147.09 35 988 bom 10 0 P_____O_PPP_P_ SH101974 -19.02 146.88 -1 -19.60 147.20 30 35 988 4.00 -20.19 147.35 35 992 -19.02 146.88 TC -18.96 146.92 2 -19.42 147.19 TC 50 988 49 49 18 178
1974 SP EA 18:00:00 TS -19.71 147.09 0 0 O_____P_POP_O_ jtwc_sh SH101974 -19.50 146.90 -1 -19.82 147.21 30 33 989 -20.32 147.31 35 993 -19.50 146.90 TC -19.43 146.93 2 -19.60 147.20 TC 50 988 19 0
1974 SP EA 20:00:00 TS -20.33 147.11 30 994 bom 0 0 P_____O_PPP_P_ SH101974 -20.43 146.96 -1 -20.30 147.20 20 30 994 -20.56 147.24 33 994 -20.43 146.96 TC -20.36 146.99 2 -20.02 147.20 TC 44 991 45 45 19 0
1974 SP EA 21:00:00 TS -20.63 147.12 0 0 P_____P_PPP_P_ SH101974 -20.87 147.00 -1 -20.51 147.20 20 30 995 -20.68 147.21 32 995 -20.87 147.00 TC -20.80 147.03 2 -20.24 147.20 TC 42 993 17 176
1974 SP EA 23:00:00 TS -21.20 147.16 30 998 bom 0 0 P_____O_PPP_P_ SH101974 -21.63 147.13 -1 -20.90 147.20 20 30 998 -20.89 147.14 30 996 -21.63 147.13 TC -21.58 147.14 2 -20.69 147.20 TC 37 996 45 45 17 175
1974 SP EA 1973-12-19 00:00:00 TS -21.45 147.20 0 0 O_____P_OOO_O_ jtwc_sh SH101974 -21.90 147.20 -1 -21.11 147.20 20 28 998 -21.00 147.10 30 997 -21.90 147.20 TC -21.90 147.20 2 -20.90 147.20 TC 35 998 12 171
1974 SP EA 02:00:00 TS -21.79 147.27 25 998 bom 0 0 P_____O__PP_P_ SH101974 -22.14 147.35 -1 -21.50 147.20 20 25 998 -22.14 147.35 TC -22.21 147.32 2 -21.28 147.19 TC 35 998 45 45 9 167
1974 SP EA 03:00:00 TS -21.89 147.31 0 0 P_____P__PP_P_ SH101974 -22.16 147.44 -1 -21.65 147.20 20 25 998 -22.16 147.44 TC -22.30 147.39 2 -21.45 147.19 TC 35 998 5 154
1974 SP EA 05:00:00 TS -22.03 147.39 25 998 bom 0 0 P_____O__PP_P_ SH101974 -22.12 147.61 -1 -21.90 147.20 20 25 998 -22.12 147.61 TC -22.39 147.55 2 -21.76 147.19 TC 35 998 45 45 5 149
1974 SP EA 06:00:00 TS -22.08 147.44 0 0 O_____P__OP_O_ jtwc_sh SH101974 -22.10 147.70 -1 -22.01 147.19 20 25 998 -22.10 147.70 TC -22.40 147.64 2 -21.90 147.20 TC 35 998 4 145
1974 SP EA 08:00:00 TS -22.21 147.53 25 998 bom 0 0 P_____O__PP_P_ SH101974 -22.16 147.87 -1 -22.20 147.20 20 25 998 -22.16 147.87 TC -22.37 147.82 2 -22.14 147.21 TC 35 998 45 45 4 144
1974 SP EA 09:00:00 TS -22.26 147.58 0 0 P_____P__PP_P_ SH101974 -22.18 147.95 -1 -22.31 147.23 20 25 998 -22.18 147.95 TC -22.35 147.92 2 -22.24 147.23 TC 35 998 5 137
1974 SP EA 11:00:00 TS -22.37 147.70 25 998 bom 0 0 P_____O__PP_P_ SH101974 -22.26 148.12 -1 -22.50 147.30 20 25 998 -22.26 148.12 TC -22.31 148.11 2 -22.42 147.27 TC 35 998 45 45 5 136
1974 SP EA 12:00:00 TS -22.43 147.75 0 0 O_____P__OO_O_ jtwc_sh SH101974 -22.30 148.20 -1 -22.57 147.33 20 25 998 -22.30 148.20 TC -22.30 148.20 2 -22.50 147.30 TC 35 998 5 139
1974 SP EA 14:00:00 TS -22.56 147.87 25 998 bom 0 0 P_____O__PP_P_ SH101974 -22.41 148.37 -1 -22.70 147.40 20 25 998 -22.41 148.37 TC -22.39 148.31 2 -22.66 147.36 TC 35 998 45 45 5 141
1974 SP EA 15:00:00 TS -22.63 147.93 0 0 P_____P__PP_P_ SH101974 -22.48 148.45 -1 -22.79 147.45 20 25 998 -22.48 148.45 TC -22.43 148.37 2 -22.74 147.41 TC 35 998 6 140
1974 SP EA 17:00:00 TS -22.78 148.07 25 998 bom 0 0 P_____O__PP_P_ SH101974 -22.62 148.62 -1 -23.00 147.60 20 25 998 -22.62 148.62 TC -22.55 148.48 2 -22.91 147.52 TC 35 998 45 45 6 139
1974 SP EA 18:00:00 TS -22.87 148.16 0 0 O_____P__OP_O_ jtwc_sh SH101974 -22.70 148.70 -1 -23.09 147.69 20 23 998 -22.70 148.70 TC -22.61 148.55 2 -23.00 147.60 TC 35 998 7 138
1974 SP EA 20:00:00 TS -23.04 148.33 20 1000 bom 0 0 P_____O__PP_P_ SH101974 -22.84 148.82 -1 -23.30 147.90 20 20 1000 -22.84 148.82 TC -22.77 148.71 2 -23.21 147.80 TC 33 998 45 45 8 132
1974 SP EA 21:00:00 TS -23.12 148.47 0 0 P_____P__PP_P_ SH101974 -22.91 148.89 -1 -23.43 148.03 20 20 1000 -22.91 148.89 TC -22.86 148.80 2 -23.33 147.91 TC 32 999 10 122
1974 SP EA 23:00:00 TS -23.30 148.77 20 1000 bom 0 0 P_____O__PP_P_ SH101974 -23.09 149.07 -1 -23.70 148.30 20 20 1000 -23.09 149.07 TC -23.07 149.05 2 -23.57 148.17 TC 30 999 45 45 11 115
1974 SP EA 1973-12-20 00:00:00 TS -23.35 149.00 0 0 O_____P__OO_O_ jtwc_sh SH101974 -23.20 149.20 -1 -23.84 148.44 20 20 1000 -23.20 149.20 TC -23.20 149.20 2 -23.70 148.30 TC 30 1000 14 107
1974 SP EA 02:00:00 TS -23.50 149.50 20 1002 bom 0 0 P_____O__PP___ SH101974 -23.45 149.54 -1 -24.10 148.70 20 20 1002 -23.45 149.54 TC -23.46 149.61 2 TC 45 45 15 109
1974 SP EA 03:00:00 TS -23.60 149.78 0 0 P________PP___ SH101974 -23.59 149.75 -1 20 -23.59 149.75 TC -23.61 149.84 2 TC 17 122
1974 SP EA 06:00:00 TS -24.10 150.54 0 0 O________OP___ jtwc_sh SH101974 -24.10 150.50 -1 -24.10 150.50 TC -24.11 150.62 2 19 126
1974 SP EA 09:00:00 TS -24.69 151.42 0 0 P________PP___ SH101974 -24.68 151.39 -1 -24.68 151.39 TC -24.71 151.47 2 21 129
1974 SP EA 12:00:00 TS -25.40 152.30 0 0 O________OO___ jtwc_sh SH101974 -25.40 152.30 -1 -25.40 152.30 TC -25.40 152.30 2 22 138
1974 SP EA 15:00:00 TS -26.31 153.04 0 0 P________PP___ SH101974 -26.33 153.04 -1 -26.33 153.04 TC -26.28 153.04 2 23 146
1974 SP EA 18:00:00 TS -27.28 153.71 45 45 O________OP___ jtwc_sh SH101974 -27.30 153.70 -1 -27.30 153.70 TC -27.23 153.74 2 22 147
1974 SP EA 21:00:00 TS -28.18 154.39 78 78 P________PP___ SH101974 -28.20 154.39 -1 -28.20 154.39 TC -28.14 154.40 2 20 145
1974 SP EA 1973-12-21 00:00:00 TS -28.90 155.00 136 136 O________OO___ jtwc_sh SH101974 -28.90 155.00 -1 -28.90 155.00 TC -28.90 155.00 2 15 139
1974 SP EA 03:00:00 TS -29.30 155.49 189 189 P________PP___ SH101974 -29.28 155.48 -1 -29.28 155.48 TC -29.35 155.51 2 10 129
1974 SP EA 06:00:00 TS -29.54 155.92 232 232 O________OP___ jtwc_sh SH101974 -29.50 155.90 -1 -29.50 155.90 TC -29.63 155.95 2 9 122
1974 SP EA 09:00:00 TS -29.78 156.35 279 279 P________PP___ SH101974 -29.76 156.34 -1 -29.76 156.34 TC -29.83 156.36 2 9 121
1974 SP EA 12:00:00 TS -30.00 156.80 332 332 O________OO___ jtwc_sh SH101974 -30.00 156.80 -1 -30.00 156.80 TC -30.00 156.80 2 9 121
1974 SP EA 15:00:00 TS -30.25 157.27 386 386 P________PP___ SH101974 -30.25 157.28 -1 -30.25 157.28 TC -30.25 157.25 2 10 121
1974 SP EA 18:00:00 TS -30.50 157.78 436 436 O________OP___ jtwc_sh SH101974 -30.50 157.80 -1 -30.50 157.80 TC -30.50 157.74 2 10 118
1974 SP EA 21:00:00 TS -30.75 158.33 487 487 P________PP___ SH101974 -30.75 158.35 -1 -30.75 158.35 TC -30.75 158.31 2 12 115
1974 SP EA 1973-12-22 00:00:00 TS -31.00 159.00 559 559 O________OO___ jtwc_sh SH101974 -31.00 159.00 -1 -31.00 159.00 TC -31.00 159.00 2 13 112
1974 SP EA 03:00:00 TS -31.25 159.79 636 636 P________PP___ SH101974 -31.25 159.77 -1 -31.25 159.77 TC -31.25 159.85 2 16 109
1974 SP MM 06:00:00 TS -31.50 160.74 722 722 O________OP___ jtwc_sh SH101974 -31.50 160.70 -1 -31.50 160.70 TC -31.51 160.82 2 18 106
1974 SP MM 09:00:00 TS -31.75 161.83 827 827 P________PP___ SH101974 -31.75 161.80 -1 -31.75 161.80 TC -31.76 161.89 2 20 105
1974 SP MM 12:00:00 TS -32.00 163.00 933 O________OO___ jtwc_sh SH101974 -32.00 163.00 -1 -32.00 163.00 TC -32.00 163.00 6 20 104